Terminal Aerodrome Forecast
Issued by NWS Wilmington, NC

Home | Current Version | Previous Version | Text Only | Print | Product List | Glossary On
Versions: 1 2 3 4 5 6 7 8 9 10 11 12 13 14 15 16
000
FTUS42 KILM 112320
TAFLBT
TAF
KLBT 112320Z 1200/1224 23004KT P6SM SKC
     FM120600 21006KT P6SM SKC WS015/24040KT
     FM121500 25011G18KT P6SM SCT035 BKN250=

USA.gov is the U.S. government's official web portal to all federal, state and local government web resources and services.